Time;durP1;ratioP1;P1;durP2;ratioP2;P2;SDS_P1;SDS_P2;PMS_P1;PMS_P2;Temp;Humidity;BMP_temperature;BMP_pressure;BME280_temperature;BME280_humidity;BME280_pressure;Samples;Min_cycle;Max_cycle;Signal;HPM_P1;HPM_P2
2022/10/18 00:01:55;;;;;;;15.18;14.20;;;;;;;;;;5018060;28;20025;-68
2022/10/18 00:04:20;;;;;;;11.93;11.20;;;;;;;;;;5015609;28;20064;-69
2022/10/18 00:06:46;;;;;;;12.68;11.90;;;;;;;;;;5017852;28;20064;-68
2022/10/18 00:09:11;;;;;;;10.80;10.15;;;;;;;;;;5019628;28;20038;-68
2022/10/18 00:11:37;;;;;;;10.73;10.02;;;;;;;;;;5014386;28;20096;-69
2022/10/18 00:14:02;;;;;;;9.82;9.23;;;;;;;;;;5013603;28;20125;-69
2022/10/18 00:16:27;;;;;;;11.05;10.35;;;;;;;;;;5016825;28;20435;-69
2022/10/18 00:18:53;;;;;;;12.55;11.80;;;;;;;;;;5016730;28;20074;-69
2022/10/18 00:21:21;;;;;;;10.88;10.18;;;;;;;;;;5017567;28;20021;-68
2022/10/18 00:23:48;;;;;;;12.52;11.63;;;;;;;;;;5014299;28;20507;-68
2022/10/18 00:26:25;;;;;;;11.07;10.38;;;;;;;;;;5017383;28;20033;-68
2022/10/18 00:28:56;;;;;;;12.38;11.60;;;;;;;;;;5016021;28;20025;-68
2022/10/18 00:31:23;;;;;;;12.27;11.55;;;;;;;;;;5016105;28;20047;-68
2022/10/18 00:33:52;;;;;;;14.35;13.52;;;;;;;;;;5017413;28;20115;-69
2022/10/18 00:36:18;;;;;;;12.80;12.00;;;;;;;;;;5016849;28;20667;-68
2022/10/18 00:38:44;;;;;;;11.75;11.05;;;;;;;;;;5017549;28;20122;-68
2022/10/18 00:41:11;;;;;;;12.20;11.48;;;;;;;;;;5014200;28;20384;-69
2022/10/18 00:43:58;;;;;;;12.27;11.48;;;;;;;;;;5015598;28;20030;-69
2022/10/18 00:46:28;;;;;;;10.55;9.90;;;;;;;;;;5014750;28;20040;-69
2022/10/18 00:48:55;;;;;;;12.43;11.65;;;;;;;;;;5013511;28;20022;-69
2022/10/18 00:51:22;;;;;;;14.43;13.23;;;;;;;;;;5031123;28;20353;-69
2022/10/18 00:53:48;;;;;;;14.52;13.63;;;;;;;;;;5015060;28;20037;-68
2022/10/18 00:56:13;;;;;;;11.82;11.13;;;;;;;;;;5013516;28;20033;-68
2022/10/18 00:58:41;;;;;;;13.52;12.73;;;;;;;;;;5015102;28;20025;-68
2022/10/18 01:01:06;;;;;;;13.02;12.25;;;;;;;;;;5012760;28;20030;-68
2022/10/18 01:03:32;;;;;;;12.27;11.57;;;;;;;;;;5013725;28;20032;-68
2022/10/18 01:05:57;;;;;;;13.57;12.77;;;;;;;;;;5014658;28;20349;-68
2022/10/18 01:08:41;;;;;;;11.93;11.10;;;;;;;;;;5013754;28;20127;-68
2022/10/18 01:11:57;;;;;;;11.23;10.52;;;;;;;;;;5019247;28;20036;-69
2022/10/18 01:14:41;;;;;;;10.88;10.07;;;;;;;;;;4939359;29;20039;-68
2022/10/18 01:17:29;;;;;;;10.15;9.55;;;;;;;;;;5010992;28;20041;-69
2022/10/18 01:20:22;;;;;;;10.82;10.13;;;;;;;;;;5020002;28;20070;-68
2022/10/18 01:22:58;;;;;;;13.50;12.40;;;;;;;;;;5020608;28;20037;-68
2022/10/18 01:26:14;;;;;;;11.95;11.23;;;;;;;;;;5021874;28;20226;-68
2022/10/18 01:28:58;;;;;;;13.27;12.27;;;;;;;;;;5004642;28;20067;-67
2022/10/18 01:31:40;;;;;;;12.88;12.13;;;;;;;;;;5016029;28;20107;-68
2022/10/18 01:34:08;;;;;;;13.77;12.95;;;;;;;;;;5017232;28;20037;-68
2022/10/18 01:36:39;;;;;;;14.52;13.70;;;;;;;;;;5014470;28;20033;-68
2022/10/18 01:39:10;;;;;;;14.10;13.30;;;;;;;;;;5017913;28;20151;-68
2022/10/18 01:41:38;;;;;;;14.48;13.15;;;;;;;;;;5033356;28;20025;-68
2022/10/18 01:44:08;;;;;;;14.38;13.50;;;;;;;;;;5018309;28;20044;-68
2022/10/18 01:46:34;;;;;;;13.85;12.95;;;;;;;;;;5026547;28;20562;-68
2022/10/18 01:49:00;;;;;;;14.30;13.43;;;;;;;;;;5017173;28;20041;-68
2022/10/18 01:51:28;;;;;;;14.85;12.32;;;;;;;;;;5018278;28;20494;-68
2022/10/18 01:53:54;;;;;;;12.65;11.88;;;;;;;;;;5017379;28;20109;-68
2022/10/18 01:56:32;;;;;;;12.48;11.77;;;;;;;;;;5016616;28;20034;-68
2022/10/18 01:59:16;;;;;;;13.25;12.45;;;;;;;;;;5025354;28;20458;-68
2022/10/18 02:01:52;;;;;;;12.80;12.00;;;;;;;;;;5017907;28;20574;-68
2022/10/18 02:04:49;;;;;;;12.55;11.80;;;;;;;;;;5019786;28;20022;-68
2022/10/18 02:07:25;;;;;;;14.65;13.75;;;;;;;;;;5017413;28;20040;-68
2022/10/18 02:10:01;;;;;;;13.20;12.40;;;;;;;;;;5017576;28;20033;-68
2022/10/18 02:12:31;;;;;;;14.00;13.10;;;;;;;;;;5018546;28;20021;-68
2022/10/18 02:14:58;;;;;;;12.68;11.90;;;;;;;;;;5017920;28;20026;-68
2022/10/18 02:17:27;;;;;;;13.75;12.90;;;;;;;;;;5019030;28;20565;-68
2022/10/18 02:19:54;;;;;;;13.93;13.13;;;;;;;;;;5014995;28;20109;-68
2022/10/18 02:22:25;;;;;;;14.98;14.07;;;;;;;;;;5017375;28;20029;-68
2022/10/18 02:24:53;;;;;;;14.65;13.75;;;;;;;;;;5051040;28;20064;-68
2022/10/18 02:27:19;;;;;;;14.85;13.85;;;;;;;;;;5017965;28;20124;-68
2022/10/18 02:29:45;;;;;;;12.25;11.50;;;;;;;;;;5017945;28;20030;-68
2022/10/18 02:32:38;;;;;;;14.40;13.48;;;;;;;;;;5021561;28;20030;-68
2022/10/18 02:35:09;;;;;;;13.32;12.52;;;;;;;;;;5019852;28;20103;-68
2022/10/18 02:37:39;;;;;;;13.55;12.75;;;;;;;;;;5019357;28;20037;-68
2022/10/18 02:40:07;;;;;;;14.45;13.57;;;;;;;;;;5016231;28;20088;-68
2022/10/18 02:42:39;;;;;;;14.55;13.73;;;;;;;;;;5020233;28;20033;-68
2022/10/18 02:45:05;;;;;;;14.98;14.07;;;;;;;;;;5016934;28;20080;-69
2022/10/18 02:47:31;;;;;;;14.07;13.20;;;;;;;;;;5015870;28;20386;-68
2022/10/18 02:49:56;;;;;;;14.82;13.95;;;;;;;;;;5016865;28;20026;-69
2022/10/18 02:52:22;;;;;;;14.82;13.93;;;;;;;;;;5015862;28;20088;-68
2022/10/18 02:54:47;;;;;;;13.80;13.00;;;;;;;;;;5016241;28;20482;-69
2022/10/18 02:57:12;;;;;;;14.55;13.70;;;;;;;;;;5017591;28;20038;-69
2022/10/18 02:59:38;;;;;;;14.68;13.80;;;;;;;;;;5018707;28;20042;-68
2022/10/18 03:02:03;;;;;;;14.00;13.18;;;;;;;;;;5016744;28;20037;-68
2022/10/18 03:04:29;;;;;;;15.18;14.30;;;;;;;;;;5014794;28;20353;-69
2022/10/18 03:06:54;;;;;;;14.40;13.57;;;;;;;;;;5015724;28;20034;-68
2022/10/18 03:09:19;;;;;;;16.85;15.73;;;;;;;;;;5019868;28;20021;-68
2022/10/18 03:11:45;;;;;;;15.70;14.73;;;;;;;;;;5016941;28;20022;-69
2022/10/18 03:14:10;;;;;;;17.42;15.23;;;;;;;;;;5017803;28;20439;-68
2022/10/18 03:16:35;;;;;;;15.38;14.48;;;;;;;;;;5015983;28;20396;-68
2022/10/18 03:19:01;;;;;;;14.20;13.30;;;;;;;;;;5018128;28;20033;-68
2022/10/18 03:21:26;;;;;;;15.38;14.13;;;;;;;;;;5016933;28;20053;-68
2022/10/18 03:23:52;;;;;;;14.18;13.27;;;;;;;;;;5016594;28;20153;-68
2022/10/18 03:26:17;;;;;;;12.27;11.48;;;;;;;;;;5015174;28;20095;-68
2022/10/18 03:28:42;;;;;;;10.65;9.98;;;;;;;;;;5014615;28;20025;-68
2022/10/18 03:31:08;;;;;;;10.70;10.05;;;;;;;;;;5016692;28;20022;-68
2022/10/18 03:33:33;;;;;;;11.40;10.60;;;;;;;;;;5018492;28;20064;-68
2022/10/18 03:35:59;;;;;;;11.75;10.95;;;;;;;;;;5016122;28;20087;-68
2022/10/18 03:38:24;;;;;;;10.25;9.65;;;;;;;;;;5017037;28;20037;-68
2022/10/18 03:40:49;;;;;;;11.73;10.95;;;;;;;;;;5017582;28;20064;-66
2022/10/18 03:43:15;;;;;;;11.95;11.15;;;;;;;;;;5016464;28;20109;-63
2022/10/18 03:45:40;;;;;;;12.77;11.77;;;;;;;;;;5006349;28;20136;-63
2022/10/18 03:48:06;;;;;;;12.00;11.20;;;;;;;;;;5016416;28;20040;-62
2022/10/18 03:50:31;;;;;;;12.18;11.38;;;;;;;;;;5014223;28;20515;-62
2022/10/18 03:52:56;;;;;;;10.90;10.20;;;;;;;;;;5017794;28;20072;-62
2022/10/18 03:55:22;;;;;;;11.48;10.68;;;;;;;;;;5015689;28;20037;-62
2022/10/18 03:57:47;;;;;;;11.27;10.57;;;;;;;;;;5014294;28;20029;-62
2022/10/18 04:00:13;;;;;;;11.68;10.88;;;;;;;;;;5015327;28;20164;-62
2022/10/18 04:02:38;;;;;;;11.88;11.07;;;;;;;;;;5013574;28;20539;-63
2022/10/18 04:05:04;;;;;;;11.25;10.55;;;;;;;;;;5014335;28;20487;-63
2022/10/18 04:07:30;;;;;;;11.88;11.07;;;;;;;;;;5015723;28;20036;-63
2022/10/18 04:09:55;;;;;;;12.95;12.05;;;;;;;;;;5016619;28;20061;-63
2022/10/18 04:12:21;;;;;;;12.45;11.65;;;;;;;;;;5014575;28;20045;-63
2022/10/18 04:14:46;;;;;;;11.88;11.07;;;;;;;;;;5013394;28;20040;-63
2022/10/18 04:17:11;;;;;;;13.20;12.20;;;;;;;;;;5018476;28;20541;-63
2022/10/18 04:19:36;;;;;;;12.20;11.40;;;;;;;;;;5012584;28;20993;-64
2022/10/18 04:22:02;;;;;;;12.65;11.82;;;;;;;;;;5012852;28;20360;-61
2022/10/18 04:24:27;;;;;;;13.32;12.32;;;;;;;;;;5016826;28;20475;-61
2022/10/18 04:26:52;;;;;;;11.05;10.35;;;;;;;;;;5015708;28;20067;-62
2022/10/18 04:29:18;;;;;;;11.65;10.82;;;;;;;;;;5015991;28;20057;-62
2022/10/18 04:31:43;;;;;;;11.88;11.18;;;;;;;;;;5015690;28;20104;-62
2022/10/18 04:34:09;;;;;;;12.75;11.65;;;;;;;;;;5016307;28;20501;-62
2022/10/18 04:36:34;;;;;;;11.63;10.90;;;;;;;;;;5013820;28;20417;-63
2022/10/18 04:39:00;;;;;;;11.32;10.52;;;;;;;;;;5015157;28;20029;-62
2022/10/18 04:41:25;;;;;;;11.80;11.00;;;;;;;;;;5016083;28;20049;-62
2022/10/18 04:43:50;;;;;;;23.50;11.40;;;;;;;;;;5015107;28;20329;-62
2022/10/18 04:46:16;;;;;;;12.88;11.98;;;;;;;;;;5017762;28;20029;-63
2022/10/18 04:48:41;;;;;;;12.00;11.30;;;;;;;;;;5016505;28;20462;-63
2022/10/18 04:51:07;;;;;;;12.13;11.32;;;;;;;;;;5014673;28;20102;-63
2022/10/18 04:53:32;;;;;;;12.38;11.27;;;;;;;;;;5019399;28;20042;-63
2022/10/18 04:55:57;;;;;;;12.27;11.48;;;;;;;;;;5016878;28;20033;-63
2022/10/18 04:58:23;;;;;;;12.60;11.80;;;;;;;;;;5019952;28;20652;-63
2022/10/18 05:00:49;;;;;;;12.60;11.73;;;;;;;;;;5015140;28;20534;-63
2022/10/18 05:03:15;;;;;;;12.30;11.50;;;;;;;;;;5019818;28;20038;-64
2022/10/18 05:05:40;;;;;;;12.82;12.02;;;;;;;;;;5006800;28;20033;-63
2022/10/18 05:08:06;;;;;;;12.35;11.63;;;;;;;;;;5026316;28;20026;-64
2022/10/18 05:10:31;;;;;;;11.68;10.98;;;;;;;;;;5018188;28;20029;-63
2022/10/18 05:12:57;;;;;;;12.02;11.27;;;;;;;;;;5022334;28;20037;-68
2022/10/18 05:15:22;;;;;;;12.60;11.70;;;;;;;;;;5021477;28;20033;-69
2022/10/18 05:17:47;;;;;;;12.93;12.13;;;;;;;;;;5021996;28;20137;-68
2022/10/18 05:20:13;;;;;;;12.57;11.77;;;;;;;;;;5021815;28;20060;-68
2022/10/18 05:22:38;;;;;;;14.27;13.18;;;;;;;;;;5023562;28;20098;-69
2022/10/18 05:25:04;;;;;;;13.50;12.27;;;;;;;;;;5022839;28;20174;-69
2022/10/18 05:27:29;;;;;;;12.55;11.65;;;;;;;;;;5023109;28;20033;-68
2022/10/18 05:29:55;;;;;;;12.57;11.77;;;;;;;;;;5020351;28;20037;-68
2022/10/18 05:32:20;;;;;;;11.80;11.00;;;;;;;;;;5021792;28;20195;-68
2022/10/18 05:34:46;;;;;;;13.10;12.30;;;;;;;;;;5023243;28;20472;-68
2022/10/18 05:37:11;;;;;;;12.85;11.95;;;;;;;;;;5024745;28;20029;-69
2022/10/18 05:39:37;;;;;;;11.63;10.88;;;;;;;;;;5018949;28;20033;-68
2022/10/18 05:42:03;;;;;;;12.77;11.88;;;;;;;;;;5019144;28;20034;-66
2022/10/18 05:44:28;;;;;;;11.85;11.02;;;;;;;;;;5018881;28;20116;-70
2022/10/18 05:46:54;;;;;;;12.43;11.63;;;;;;;;;;5015817;28;20179;-70
2022/10/18 05:49:19;;;;;;;13.25;12.35;;;;;;;;;;5019373;28;20126;-69
2022/10/18 05:51:45;;;;;;;13.15;12.15;;;;;;;;;;5012879;28;20021;-70
2022/10/18 05:54:11;;;;;;;10.57;9.88;;;;;;;;;;5015447;28;20049;-69
2022/10/18 05:56:37;;;;;;;12.27;11.48;;;;;;;;;;5017998;28;20083;-69
2022/10/18 05:59:04;;;;;;;13.23;12.32;;;;;;;;;;5017273;28;20034;-70
2022/10/18 06:01:29;;;;;;;11.88;11.10;;;;;;;;;;5014580;28;20109;-68
2022/10/18 06:03:55;;;;;;;12.48;11.73;;;;;;;;;;5015836;28;20137;-69
2022/10/18 06:06:21;;;;;;;13.05;12.13;;;;;;;;;;5017457;28;20034;-71
2022/10/18 06:08:48;;;;;;;12.50;11.50;;;;;;;;;;5018631;28;20034;-70
2022/10/18 06:11:16;;;;;;;11.48;10.77;;;;;;;;;;5017074;28;20105;-70
2022/10/18 06:13:46;;;;;;;11.70;11.00;;;;;;;;;;5013242;28;20038;-69
2022/10/18 06:16:13;;;;;;;14.20;12.77;;;;;;;;;;5022670;28;20025;-70
2022/10/18 06:18:39;;;;;;;11.20;10.50;;;;;;;;;;5016497;28;20422;-70
2022/10/18 06:21:04;;;;;;;11.52;10.80;;;;;;;;;;5018496;28;20033;-70
2022/10/18 06:23:30;;;;;;;12.57;11.68;;;;;;;;;;5016929;28;20526;-70
2022/10/18 06:26:13;;;;;;;13.23;12.13;;;;;;;;;;5016447;28;20364;-71
2022/10/18 06:28:39;;;;;;;10.75;10.05;;;;;;;;;;5014984;28;20029;-69
2022/10/18 06:31:05;;;;;;;13.00;12.10;;;;;;;;;;5020662;28;20040;-69
2022/10/18 06:33:32;;;;;;;11.48;10.35;;;;;;;;;;5017636;28;20103;-65
2022/10/18 06:35:59;;;;;;;16.02;12.13;;;;;;;;;;5018478;28;20029;-65
2022/10/18 06:38:25;;;;;;;14.05;13.00;;;;;;;;;;5017379;28;20108;-70
2022/10/18 06:40:51;;;;;;;12.98;12.18;;;;;;;;;;5019109;28;20518;-70
2022/10/18 06:43:16;;;;;;;12.35;11.55;;;;;;;;;;5017767;28;20108;-70
2022/10/18 06:45:41;;;;;;;15.15;14.00;;;;;;;;;;5014072;28;20025;-71
2022/10/18 06:48:07;;;;;;;12.65;11.85;;;;;;;;;;5016087;28;20065;-70
2022/10/18 06:50:32;;;;;;;13.57;12.27;;;;;;;;;;5013512;28;20566;-69
2022/10/18 06:52:57;;;;;;;12.10;11.38;;;;;;;;;;5013261;28;20116;-68
2022/10/18 06:55:23;;;;;;;13.35;12.55;;;;;;;;;;5015867;28;20291;-68
2022/10/18 06:57:48;;;;;;;12.05;11.25;;;;;;;;;;5015858;28;20034;-67
2022/10/18 07:00:14;;;;;;;10.52;9.82;;;;;;;;;;5018392;28;20046;-68
2022/10/18 07:02:40;;;;;;;12.20;11.40;;;;;;;;;;5016177;28;20025;-68
2022/10/18 07:05:06;;;;;;;11.20;10.50;;;;;;;;;;5014884;28;20121;-68
2022/10/18 07:07:31;;;;;;;13.02;12.07;;;;;;;;;;5015648;28;20022;-67
2022/10/18 07:09:57;;;;;;;11.15;10.45;;;;;;;;;;5013365;28;20535;-67
2022/10/18 07:12:22;;;;;;;12.55;11.75;;;;;;;;;;5012855;28;20088;-68
2022/10/18 07:14:48;;;;;;;11.52;10.82;;;;;;;;;;5016856;28;20490;-68
2022/10/18 07:17:13;;;;;;;12.13;11.32;;;;;;;;;;5023325;28;20036;-68
2022/10/18 07:19:38;;;;;;;12.10;11.30;;;;;;;;;;5016466;28;20029;-67
2022/10/18 07:22:04;;;;;;;17.80;11.88;;;;;;;;;;5017925;28;20048;-67
2022/10/18 07:24:29;;;;;;;11.90;11.10;;;;;;;;;;5016066;28;20048;-68
2022/10/18 07:26:54;;;;;;;13.52;12.43;;;;;;;;;;5017698;28;20084;-67
2022/10/18 07:29:20;;;;;;;12.68;11.88;;;;;;;;;;5015507;28;20128;-67
2022/10/18 07:31:45;;;;;;;13.10;12.23;;;;;;;;;;5013441;28;20037;-67
2022/10/18 07:34:12;;;;;;;13.52;12.68;;;;;;;;;;5017908;28;20423;-67
2022/10/18 07:36:38;;;;;;;14.13;13.10;;;;;;;;;;5014081;28;20021;-67
2022/10/18 07:39:04;;;;;;;15.18;14.18;;;;;;;;;;5014090;28;20721;-65
2022/10/18 07:41:32;;;;;;;14.45;13.55;;;;;;;;;;5015265;28;20331;-67
2022/10/18 07:43:58;;;;;;;15.20;14.30;;;;;;;;;;5019835;28;20037;-67
2022/10/18 07:46:23;;;;;;;16.98;16.00;;;;;;;;;;5017415;28;20037;-66
2022/10/18 07:48:49;;;;;;;14.52;13.70;;;;;;;;;;5015514;28;20512;-67
2022/10/18 07:51:15;;;;;;;16.70;15.77;;;;;;;;;;5015802;28;20716;-67
2022/10/18 07:53:41;;;;;;;15.38;14.48;;;;;;;;;;5015719;28;20030;-67
2022/10/18 07:56:15;;;;;;;17.38;16.35;;;;;;;;;;5016871;28;20650;-67
2022/10/18 07:58:45;;;;;;;20.17;18.88;;;;;;;;;;5014731;28;20509;-67
2022/10/18 08:01:11;;;;;;;17.42;16.42;;;;;;;;;;5012029;28;20033;-67
2022/10/18 08:03:37;;;;;;;20.17;19.08;;;;;;;;;;5019301;28;20029;-66
2022/10/18 08:06:04;;;;;;;18.23;17.20;;;;;;;;;;5020928;28;20469;-66
2022/10/18 08:08:30;;;;;;;16.95;16.00;;;;;;;;;;5019088;28;20025;-67
2022/10/18 08:11:04;;;;;;;15.95;14.95;;;;;;;;;;5018948;28;20024;-70
2022/10/18 08:13:30;;;;;;;14.57;13.68;;;;;;;;;;5016897;28;20045;-73
2022/10/18 08:16:04;;;;;;;12.70;11.90;;;;;;;;;;5012148;28;20029;-71
2022/10/18 08:18:30;;;;;;;14.73;13.85;;;;;;;;;;5020794;28;20033;-71
2022/10/18 08:20:55;;;;;;;12.68;11.88;;;;;;;;;;5019636;28;20329;-70
2022/10/18 08:23:21;;;;;;;12.65;11.85;;;;;;;;;;5018423;28;20029;-69
2022/10/18 08:25:46;;;;;;;10.50;9.90;;;;;;;;;;5015020;28;20610;-71
2022/10/18 08:28:12;;;;;;;10.30;9.70;;;;;;;;;;5015717;28;20045;-71
2022/10/18 08:30:38;;;;;;;10.35;9.65;;;;;;;;;;5014354;28;20066;-73
2022/10/18 08:33:04;;;;;;;9.77;9.18;;;;;;;;;;5016719;28;20038;-72
2022/10/18 08:35:30;;;;;;;10.30;9.70;;;;;;;;;;5015960;28;20107;-70
2022/10/18 08:37:56;;;;;;;9.60;9.00;;;;;;;;;;5016852;28;20041;-71
2022/10/18 08:40:21;;;;;;;9.60;9.00;;;;;;;;;;5016618;28;20029;-69
2022/10/18 08:43:03;;;;;;;11.80;11.10;;;;;;;;;;5018513;28;20030;-71
2022/10/18 08:45:32;;;;;;;12.38;11.68;;;;;;;;;;5014311;28;20029;-69
2022/10/18 08:47:57;;;;;;;12.95;12.15;;;;;;;;;;5016030;28;20048;-69
2022/10/18 08:50:29;;;;;;;9.85;9.20;;;;;;;;;;5015742;28;20479;-70
2022/10/18 08:53:04;;;;;;;9.38;8.77;;;;;;;;;;5016870;28;20033;-69
2022/10/18 08:55:51;;;;;;;9.38;8.77;;;;;;;;;;5019892;28;20025;-73
2022/10/18 08:58:26;;;;;;;11.43;10.73;;;;;;;;;;5016590;28;20503;-69
2022/10/18 09:01:25;;;;;;;12.98;12.20;;;;;;;;;;5018601;28;20053;-68
2022/10/18 09:04:08;;;;;;;12.35;11.55;;;;;;;;;;5030016;28;20037;-67
2022/10/18 09:06:55;;;;;;;12.40;11.50;;;;;;;;;;5012813;28;20577;-67
2022/10/18 09:09:29;;;;;;;9.90;9.30;;;;;;;;;;5013472;28;20114;-68
2022/10/18 09:12:19;;;;;;;9.73;9.13;;;;;;;;;;5016768;28;20137;-68
2022/10/18 09:15:23;;;;;;;10.45;9.80;;;;;;;;;;5013683;28;20030;-67
2022/10/18 09:18:12;;;;;;;11.30;10.63;;;;;;;;;;4992369;28;20045;-67
2022/10/18 09:20:49;;;;;;;11.20;10.50;;;;;;;;;;5013094;28;20049;-68
2022/10/18 09:23:39;;;;;;;13.10;12.35;;;;;;;;;;5014071;28;20414;-68
2022/10/18 09:26:25;;;;;;;13.70;12.90;;;;;;;;;;5014032;28;20037;-68
2022/10/18 09:29:36;;;;;;;10.70;10.00;;;;;;;;;;5015934;28;20519;-68
2022/10/18 09:32:18;;;;;;;9.35;8.75;;;;;;;;;;5012988;28;20033;-68
2022/10/18 09:34:54;;;;;;;10.57;9.88;;;;;;;;;;5011569;28;20029;-69
2022/10/18 09:37:21;;;;;;;12.45;11.68;;;;;;;;;;5014346;28;20030;-68
2022/10/18 09:39:49;;;;;;;12.18;11.48;;;;;;;;;;5021000;28;20119;-68
2022/10/18 09:42:27;;;;;;;11.27;10.57;;;;;;;;;;5018803;28;20095;-68
2022/10/18 09:45:13;;;;;;;10.63;9.95;;;;;;;;;;5018679;28;20033;-68
2022/10/18 09:47:51;;;;;;;12.80;12.00;;;;;;;;;;5020419;28;20467;-68
2022/10/18 09:50:25;;;;;;;9.65;9.05;;;;;;;;;;5017275;28;20033;-68
2022/10/18 09:53:05;;;;;;;8.82;8.23;;;;;;;;;;5017530;28;20029;-69
2022/10/18 09:55:37;;;;;;;9.20;8.60;;;;;;;;;;5015150;28;20038;-69
2022/10/18 09:58:05;;;;;;;9.77;9.10;;;;;;;;;;5019088;28;20030;-69
2022/10/18 10:00:37;;;;;;;9.20;8.60;;;;;;;;;;5019182;28;20026;-71
2022/10/18 10:03:11;;;;;;;10.70;10.05;;;;;;;;;;5017276;28;20471;-71
2022/10/18 10:05:37;;;;;;;9.50;8.90;;;;;;;;;;5017206;28;20021;-71
2022/10/18 10:08:03;;;;;;;9.73;9.13;;;;;;;;;;5016984;28;20121;-71
2022/10/18 10:10:30;;;;;;;11.63;10.93;;;;;;;;;;5017099;28;20021;-71
2022/10/18 10:13:02;;;;;;;13.07;12.25;;;;;;;;;;5016101;28;20029;-70
2022/10/18 10:15:28;;;;;;;19.40;18.33;;;;;;;;;;5021030;28;20655;-70
2022/10/18 10:18:06;;;;;;;32.70;30.95;;;;;;;;;;5016560;28;20034;-70
2022/10/18 10:20:34;;;;;;;28.70;27.17;;;;;;;;;;5018178;28;20419;-71
2022/10/18 10:23:25;;;;;;;25.35;24.02;;;;;;;;;;5014762;28;20041;-70
2022/10/18 10:25:56;;;;;;;26.55;25.15;;;;;;;;;;5019409;28;20021;-70
2022/10/18 10:28:27;;;;;;;26.42;25.02;;;;;;;;;;5014998;28;20096;-69
2022/10/18 10:30:52;;;;;;;25.00;23.20;;;;;;;;;;5017231;28;20034;-70
2022/10/18 10:33:34;;;;;;;29.15;27.63;;;;;;;;;;5019314;28;20026;-70
2022/10/18 10:36:03;;;;;;;28.60;27.10;;;;;;;;;;5020832;28;20030;-69
2022/10/18 10:38:29;;;;;;;26.23;24.83;;;;;;;;;;5022040;28;20025;-63
2022/10/18 10:40:56;;;;;;;27.70;26.25;;;;;;;;;;5020184;28;20044;-63
2022/10/18 10:43:37;;;;;;;35.05;33.25;;;;;;;;;;5019132;28;20022;-64
2022/10/18 10:46:12;;;;;;;25.85;24.45;;;;;;;;;;5016590;28;20483;-64
2022/10/18 10:48:40;;;;;;;27.70;26.23;;;;;;;;;;5017073;28;20435;-64
2022/10/18 10:51:08;;;;;;;21.02;19.73;;;;;;;;;;5015295;28;20026;-64
2022/10/18 10:53:49;;;;;;;21.58;20.40;;;;;;;;;;5016523;28;20041;-63
2022/10/18 10:56:36;;;;;;;20.33;19.23;;;;;;;;;;5017708;28;20053;-64
2022/10/18 10:59:11;;;;;;;19.58;18.48;;;;;;;;;;5014395;28;20033;-64
2022/10/18 11:01:37;;;;;;;17.88;16.88;;;;;;;;;;5013373;28;20581;-64
2022/10/18 11:04:28;;;;;;;18.65;17.65;;;;;;;;;;5015197;28;20042;-63
2022/10/18 11:07:03;;;;;;;18.60;17.60;;;;;;;;;;5014301;28;20037;-64
2022/10/18 11:09:40;;;;;;;18.65;17.65;;;;;;;;;;5011527;28;20459;-63
2022/10/18 11:12:33;;;;;;;19.80;18.65;;;;;;;;;;5013370;28;20030;-63
2022/10/18 11:15:24;;;;;;;20.70;19.60;;;;;;;;;;5011001;28;20048;-63
2022/10/18 11:18:01;;;;;;;17.23;16.27;;;;;;;;;;5011464;28;20049;-65
2022/10/18 11:20:30;;;;;;;17.65;16.65;;;;;;;;;;5016369;28;20036;-65
2022/10/18 11:22:59;;;;;;;17.58;16.60;;;;;;;;;;5012623;28;20044;-64
2022/10/18 11:25:39;;;;;;;19.20;18.15;;;;;;;;;;5011800;28;20034;-64
2022/10/18 11:28:25;;;;;;;17.23;16.27;;;;;;;;;;5014827;28;20041;-64
2022/10/18 11:31:09;;;;;;;16.20;15.30;;;;;;;;;;5015307;28;20040;-65
2022/10/18 11:33:49;;;;;;;15.98;15.07;;;;;;;;;;5015343;28;20451;-64
2022/10/18 11:36:26;;;;;;;15.73;14.83;;;;;;;;;;5019140;28;20037;-64
2022/10/18 11:39:01;;;;;;;17.33;16.23;;;;;;;;;;5019194;28;20034;-65
2022/10/18 11:41:38;;;;;;;17.50;16.52;;;;;;;;;;5015632;28;20063;-66
2022/10/18 11:44:35;;;;;;;17.23;16.27;;;;;;;;;;5012628;28;20120;-65
2022/10/18 11:47:35;;;;;;;17.73;16.75;;;;;;;;;;5012589;28;20068;-65
2022/10/18 11:50:11;;;;;;;17.47;16.47;;;;;;;;;;5016722;28;20142;-65
2022/10/18 11:53:03;;;;;;;21.02;19.92;;;;;;;;;;5012072;28;20713;-66
2022/10/18 11:55:46;;;;;;;18.20;17.20;;;;;;;;;;5013624;28;20049;-65
2022/10/18 11:58:27;;;;;;;18.60;17.50;;;;;;;;;;5014070;28;20037;-65
2022/10/18 12:01:15;;;;;;;16.40;15.30;;;;;;;;;;5012264;28;20049;-65
2022/10/18 12:03:50;;;;;;;15.10;14.23;;;;;;;;;;5014547;28;20033;-65
2022/10/18 12:06:21;;;;;;;14.38;13.57;;;;;;;;;;5015830;28;20033;-65
2022/10/18 12:08:58;;;;;;;14.35;13.55;;;;;;;;;;5015854;28;20033;-64
2022/10/18 12:11:29;;;;;;;13.80;13.00;;;;;;;;;;5012635;28;20533;-64
2022/10/18 12:14:01;;;;;;;14.20;13.40;;;;;;;;;;5011956;28;20452;-64
2022/10/18 12:16:31;;;;;;;18.63;17.63;;;;;;;;;;5014640;28;20644;-65
2022/10/18 12:19:01;;;;;;;11.35;10.65;;;;;;;;;;5013385;28;20033;-64
2022/10/18 12:21:31;;;;;;;9.97;9.37;;;;;;;;;;5016686;28;20034;-64
2022/10/18 12:24:01;;;;;;;12.82;11.75;;;;;;;;;;5015555;28;20075;-65
2022/10/18 12:26:28;;;;;;;20.48;19.38;;;;;;;;;;5017498;28;20049;-64
2022/10/18 12:29:12;;;;;;;29.98;28.38;;;;;;;;;;5013671;28;20495;-64
2022/10/18 12:32:00;;;;;;;37.22;35.33;;;;;;;;;;5017633;28;20521;-64
2022/10/18 12:34:45;;;;;;;33.92;32.20;;;;;;;;;;5012938;28;20668;-65
2022/10/18 12:37:13;;;;;;;33.80;32.08;;;;;;;;;;5016448;28;20041;-63
2022/10/18 12:39:48;;;;;;;42.10;39.95;;;;;;;;;;5014134;28;20028;-63
2022/10/18 12:42:23;;;;;;;42.70;40.55;;;;;;;;;;5013755;28;20060;-64
2022/10/18 12:44:58;;;;;;;25.40;23.85;;;;;;;;;;5011642;28;20091;-63
2022/10/18 12:47:24;;;;;;;34.70;32.90;;;;;;;;;;5016518;28;20061;-63
2022/10/18 12:50:03;;;;;;;25.85;24.48;;;;;;;;;;5013941;28;20030;-64
2022/10/18 12:52:32;;;;;;;16.63;15.57;;;;;;;;;;5014796;28;20034;-64
2022/10/18 12:55:09;;;;;;;14.98;14.13;;;;;;;;;;5014172;28;20025;-64
2022/10/18 12:57:59;;;;;;;15.32;14.43;;;;;;;;;;5014106;28;20366;-64
2022/10/18 13:00:30;;;;;;;22.15;20.95;;;;;;;;;;4977263;28;20076;-63
2022/10/18 13:03:08;;;;;;;26.40;25.00;;;;;;;;;;5012996;28;20446;-64
2022/10/18 13:05:51;;;;;;;30.58;28.98;;;;;;;;;;5013484;28;20030;-64
2022/10/18 13:08:40;;;;;;;29.88;28.33;;;;;;;;;;5012217;28;20109;-64
2022/10/18 13:11:11;;;;;;;35.15;33.35;;;;;;;;;;5014662;28;20057;-64
2022/10/18 13:13:52;;;;;;;33.25;31.52;;;;;;;;;;5015989;28;20025;-64
2022/10/18 13:16:35;;;;;;;37.92;35.88;;;;;;;;;;5018238;28;20113;-64
2022/10/18 13:19:19;;;;;;;34.70;32.90;;;;;;;;;;5019889;28;20109;-64
2022/10/18 13:21:54;;;;;;;37.05;35.05;;;;;;;;;;5024974;28;20022;-64
2022/10/18 13:24:38;;;;;;;35.15;33.35;;;;;;;;;;5019995;28;20083;-63
2022/10/18 13:27:09;;;;;;;35.00;33.22;;;;;;;;;;5016576;28;20041;-64
2022/10/18 13:29:43;;;;;;;33.03;30.75;;;;;;;;;;5017962;28;20313;-64
2022/10/18 13:32:29;;;;;;;22.23;21.02;;;;;;;;;;5017958;28;20033;-65
2022/10/18 13:34:55;;;;;;;14.52;13.73;;;;;;;;;;5014724;28;20067;-65
2022/10/18 13:37:23;;;;;;;19.63;18.52;;;;;;;;;;5016287;28;20599;-67
2022/10/18 13:39:50;;;;;;;16.33;15.43;;;;;;;;;;5019109;28;20041;-66
2022/10/18 13:42:27;;;;;;;11.80;11.10;;;;;;;;;;5016626;28;20033;-65
2022/10/18 13:44:53;;;;;;;13.85;13.05;;;;;;;;;;5017892;28;20029;-65
2022/10/18 13:47:33;;;;;;;12.98;12.23;;;;;;;;;;5015368;28;20029;-65
2022/10/18 13:50:09;;;;;;;24.33;23.02;;;;;;;;;;5014872;28;20025;-65
2022/10/18 13:52:55;;;;;;;15.93;14.93;;;;;;;;;;5013545;28;20029;-65
2022/10/18 13:55:23;;;;;;;18.85;17.85;;;;;;;;;;5019068;28;20045;-65
2022/10/18 13:58:07;;;;;;;14.85;14.05;;;;;;;;;;5015416;28;20344;-65
2022/10/18 14:00:39;;;;;;;12.05;11.35;;;;;;;;;;5017969;28;20056;-65
2022/10/18 14:03:16;;;;;;;11.02;10.38;;;;;;;;;;5015990;28;20057;-65
2022/10/18 14:06:15;;;;;;;10.30;9.70;;;;;;;;;;5016858;28;20555;-64
2022/10/18 14:08:46;;;;;;;10.80;10.13;;;;;;;;;;5017780;28;20417;-65
2022/10/18 14:11:20;;;;;;;12.13;11.43;;;;;;;;;;5017046;28;20329;-65
2022/10/18 14:13:53;;;;;;;11.98;11.27;;;;;;;;;;5016883;28;20029;-66
2022/10/18 14:16:21;;;;;;;13.10;12.32;;;;;;;;;;5014964;28;20189;-65
2022/10/18 14:18:53;;;;;;;16.23;15.23;;;;;;;;;;5016051;28;20033;-60
2022/10/18 14:21:25;;;;;;;16.45;15.52;;;;;;;;;;5023455;28;20038;-62
2022/10/18 14:23:51;;;;;;;20.40;19.30;;;;;;;;;;5013353;28;20030;-62
2022/10/18 14:26:19;;;;;;;22.38;21.17;;;;;;;;;;5015480;28;20080;-62
2022/10/18 14:29:00;;;;;;;22.23;21.00;;;;;;;;;;5016866;28;20041;-62
2022/10/18 14:31:25;;;;;;;;;;;;;;;;;;5019190;28;20029;-62
2022/10/18 14:33:52;;;;;;;16.05;15.15;;;;;;;;;;5016943;28;20291;-62
2022/10/18 14:36:17;;;;;;;16.55;15.65;;;;;;;;;;5016594;28;20033;-62
2022/10/18 14:39:01;;;;;;;18.55;17.52;;;;;;;;;;5015661;28;20356;-62
2022/10/18 14:41:31;;;;;;;16.98;16.02;;;;;;;;;;5015029;28;20030;-63
2022/10/18 14:44:15;;;;;;;17.45;16.48;;;;;;;;;;5013261;28;20034;-62